createdAt,value
2022-09-12T00:01:27.170Z,100.00
2022-09-12T00:03:55.923Z,100.00
2022-09-12T00:06:26.507Z,100.00
2022-09-12T00:08:59.224Z,100.00
2022-09-12T00:11:26.738Z,100.00
2022-09-12T00:13:57.495Z,100.00
2022-09-12T00:16:27.199Z,100.00
2022-09-12T00:18:54.156Z,100.00
2022-09-12T00:21:22.040Z,100.00
2022-09-12T00:23:48.993Z,100.00
2022-09-12T00:26:17.317Z,100.00
2022-09-12T00:28:44.986Z,100.00
2022-09-12T00:31:15.973Z,100.00
2022-09-12T00:33:43.434Z,100.00
2022-09-12T00:36:14.859Z,100.00
2022-09-12T00:38:43.150Z,100.00
2022-09-12T00:41:21.956Z,100.00
2022-09-12T00:43:53.061Z,100.00
2022-09-12T00:46:28.285Z,100.00
2022-09-12T00:49:02.788Z,100.00
2022-09-12T00:51:32.829Z,100.00
2022-09-12T00:54:03.080Z,100.00
2022-09-12T00:56:29.941Z,100.00
2022-09-12T00:59:18.961Z,100.00
2022-09-12T01:01:50.163Z,100.00
2022-09-12T01:04:19.661Z,100.00
2022-09-12T01:06:47.192Z,100.00
2022-09-12T01:09:18.014Z,100.00
2022-09-12T01:11:47.203Z,100.00
2022-09-12T01:14:14.997Z,100.00
2022-09-12T01:16:41.974Z,100.00
2022-09-12T01:19:15.086Z,100.00
2022-09-12T01:22:19.311Z,100.00
2022-09-12T01:25:12.793Z,100.00
2022-09-12T01:27:54.701Z,100.00
2022-09-12T01:30:54.104Z,100.00
2022-09-12T01:33:32.839Z,100.00
2022-09-12T01:36:19.653Z,100.00
2022-09-12T01:38:50.438Z,100.00
2022-09-12T01:41:31.864Z,100.00
2022-09-12T01:44:15.551Z,100.00
2022-09-12T01:47:05.690Z,100.00
2022-09-12T01:49:46.431Z,100.00
2022-09-12T01:52:33.327Z,100.00
2022-09-12T01:55:20.354Z,100.00
2022-09-12T01:58:13.873Z,100.00
2022-09-12T02:00:50.298Z,100.00
2022-09-12T02:03:33.054Z,100.00
2022-09-12T02:06:18.608Z,100.00
2022-09-12T02:08:49.397Z,100.00
2022-09-12T02:11:16.437Z,100.00
2022-09-12T02:13:48.460Z,100.00
2022-09-12T02:16:22.310Z,100.00
2022-09-12T02:18:55.286Z,100.00
2022-09-12T02:21:24.681Z,100.00
2022-09-12T02:23:57.378Z,100.00
2022-09-12T02:26:31.082Z,100.00
2022-09-12T02:28:57.929Z,100.00
2022-09-12T02:31:42.786Z,100.00
2022-09-12T02:34:22.237Z,100.00
2022-09-12T02:37:03.362Z,100.00
2022-09-12T02:39:30.218Z,100.00
2022-09-12T02:42:01.063Z,100.00
2022-09-12T02:44:29.832Z,100.00
2022-09-12T02:47:02.530Z,100.00
2022-09-12T02:49:29.225Z,100.00
2022-09-12T02:51:56.141Z,100.00
2022-09-12T02:54:25.037Z,100.00
2022-09-12T02:56:51.973Z,100.00
2022-09-12T02:59:23.041Z,100.00
2022-09-12T03:01:55.567Z,100.00
2022-09-12T03:04:54.454Z,100.00
2022-09-12T03:07:26.898Z,100.00
2022-09-12T03:10:02.448Z,100.00
2022-09-12T03:12:44.472Z,100.00
2022-09-12T03:15:52.093Z,100.00
2022-09-12T03:18:37.270Z,100.00
2022-09-12T03:21:18.662Z,100.00
2022-09-12T03:24:15.674Z,100.00
2022-09-12T03:26:54.916Z,100.00
2022-09-12T03:29:24.111Z,100.00
2022-09-12T03:31:56.797Z,100.00
2022-09-12T03:34:25.976Z,100.00
2022-09-12T03:36:55.461Z,100.00
2022-09-12T03:39:27.055Z,100.00
2022-09-12T03:41:54.946Z,100.00
2022-09-12T03:44:22.089Z,100.00
2022-09-12T03:46:48.719Z,100.00
2022-09-12T03:49:15.433Z,100.00
2022-09-12T03:51:43.150Z,100.00
2022-09-12T03:54:11.456Z,100.00
2022-09-12T03:56:38.221Z,100.00
2022-09-12T03:59:06.246Z,100.00
2022-09-12T04:01:33.693Z,100.00
2022-09-12T04:04:00.548Z,100.00
2022-09-12T04:06:27.276Z,100.00
2022-09-12T04:08:55.421Z,100.00
2022-09-12T04:11:22.911Z,100.00
2022-09-12T04:13:50.970Z,100.00
2022-09-12T04:16:18.727Z,100.00
2022-09-12T04:18:46.399Z,100.00
2022-09-12T04:21:18.628Z,100.00
2022-09-12T04:23:46.043Z,100.00
2022-09-12T04:26:13.966Z,100.00
2022-09-12T04:28:41.803Z,100.00
2022-09-12T04:31:15.734Z,100.00
2022-09-12T04:33:42.698Z,100.00
2022-09-12T04:36:14.425Z,100.00
2022-09-12T04:38:41.216Z,100.00
2022-09-12T04:41:29.192Z,100.00
2022-09-12T04:43:58.943Z,100.00
2022-09-12T04:46:26.283Z,100.00
2022-09-12T04:48:56.607Z,100.00
2022-09-12T04:51:27.920Z,100.00
2022-09-12T04:54:06.898Z,100.00
2022-09-12T04:56:36.794Z,100.00
2022-09-12T04:59:03.626Z,100.00
2022-09-12T05:01:30.452Z,100.00
2022-09-12T05:03:59.887Z,100.00
2022-09-12T05:06:30.102Z,100.00
2022-09-12T05:08:58.521Z,100.00
2022-09-12T05:11:59.763Z,100.00
2022-09-12T05:14:18.605Z,100.00
2022-09-12T05:16:49.207Z,100.00
2022-09-12T05:19:16.685Z,100.00
2022-09-12T05:21:43.277Z,100.00
2022-09-12T05:24:11.455Z,100.00
2022-09-12T05:26:38.270Z,100.00
2022-09-12T05:29:07.229Z,100.00
2022-09-12T05:31:34.928Z,100.00
2022-09-12T05:34:04.649Z,100.00
2022-09-12T05:36:31.491Z,100.00
2022-09-12T05:38:59.945Z,100.00
2022-09-12T05:41:33.034Z,100.00
2022-09-12T05:44:01.929Z,100.00
2022-09-12T05:46:31.141Z,100.00
2022-09-12T05:49:02.313Z,100.00
2022-09-12T05:51:31.825Z,100.00
2022-09-12T05:54:00.958Z,100.00
2022-09-12T05:56:29.802Z,100.00
2022-09-12T05:58:59.756Z,100.00
2022-09-12T06:01:27.871Z,100.00
2022-09-12T06:03:56.918Z,100.00
2022-09-12T06:06:25.495Z,100.00
2022-09-12T06:08:53.632Z,100.00
2022-09-12T06:11:23.173Z,100.00
2022-09-12T06:13:53.033Z,100.00
2022-09-12T06:16:22.190Z,100.00
2022-09-12T06:18:51.758Z,100.00
2022-09-12T06:21:18.507Z,100.00
2022-09-12T06:23:48.192Z,100.00
2022-09-12T06:26:17.501Z,100.00
2022-09-12T06:28:45.474Z,100.00
2022-09-12T06:31:25.193Z,100.00
2022-09-12T06:33:53.624Z,100.00
2022-09-12T06:36:27.068Z,100.00
2022-09-12T06:38:57.173Z,100.00
2022-09-12T06:41:25.402Z,100.00
2022-09-12T06:43:52.095Z,100.00
2022-09-12T06:46:19.270Z,100.00
2022-09-12T06:48:46.386Z,100.00
2022-09-12T06:51:15.335Z,100.00
2022-09-12T06:53:44.390Z,100.00
2022-09-12T06:56:14.341Z,100.00
2022-09-12T06:58:42.713Z,100.00
2022-09-12T07:01:20.911Z,100.00
2022-09-12T07:03:49.876Z,100.00
2022-09-12T07:06:18.601Z,100.00
2022-09-12T07:08:45.979Z,100.00
2022-09-12T07:11:20.262Z,100.00
2022-09-12T07:13:49.445Z,100.00
2022-09-12T07:16:19.628Z,100.00
2022-09-12T07:19:00.577Z,100.00
2022-09-12T07:21:27.585Z,100.00
2022-09-12T07:24:00.639Z,100.00
2022-09-12T07:26:29.097Z,100.00
2022-09-12T07:29:12.768Z,100.00
2022-09-12T07:31:44.456Z,100.00
2022-09-12T07:34:11.305Z,99.11
2022-09-12T07:36:38.118Z,98.31
2022-09-12T07:39:04.829Z,99.86
2022-09-12T07:41:35.670Z,98.24
2022-09-12T07:44:03.387Z,98.01
2022-09-12T07:46:31.683Z,95.65
2022-09-12T07:49:00.481Z,91.60
2022-09-12T07:51:29.283Z,92.24
2022-09-12T07:53:56.659Z,91.86
2022-09-12T07:56:29.368Z,92.37
2022-09-12T07:58:57.492Z,89.96
2022-09-12T08:01:24.658Z,88.83
2022-09-12T08:03:55.678Z,88.88
2022-09-12T08:06:26.682Z,87.32
2022-09-12T08:08:56.024Z,87.98
2022-09-12T08:11:24.886Z,89.66
2022-09-12T08:13:56.128Z,86.78
2022-09-12T08:16:29.681Z,86.77
2022-09-12T08:18:57.022Z,84.84
2022-09-12T08:21:27.031Z,83.47
2022-09-12T08:23:56.393Z,80.96
2022-09-12T08:26:23.607Z,78.97
2022-09-12T08:28:51.270Z,80.02
2022-09-12T08:31:20.064Z,78.65
2022-09-12T08:33:46.801Z,77.71
2022-09-12T08:36:19.780Z,77.17
2022-09-12T08:38:47.752Z,78.90
2022-09-12T08:41:30.408Z,75.17
2022-09-12T08:44:07.036Z,76.04
2022-09-12T08:47:10.779Z,76.64
2022-09-12T08:49:56.961Z,75.17
2022-09-12T08:52:36.367Z,74.82
2022-09-12T08:55:06.705Z,75.79
2022-09-12T08:57:33.698Z,75.74
2022-09-12T09:00:04.698Z,72.92
2022-09-12T09:02:31.338Z,69.29
2022-09-12T09:05:30.041Z,69.39
2022-09-12T09:08:14.464Z,72.03
2022-09-12T09:11:13.310Z,69.88
2022-09-12T09:14:05.337Z,69.67
2022-09-12T09:16:38.571Z,71.21
2022-09-12T09:19:12.238Z,70.59
2022-09-12T09:21:45.489Z,69.64
2022-09-12T09:24:16.966Z,68.02
2022-09-12T09:26:55.141Z,67.87
2022-09-12T09:29:27.089Z,63.21
2022-09-12T09:31:57.952Z,62.71
2022-09-12T09:34:29.184Z,61.72
2022-09-12T09:37:19.252Z,65.36
2022-09-12T09:40:12.832Z,64.49
2022-09-12T09:43:24.353Z,63.00
2022-09-12T09:45:52.861Z,66.77
2022-09-12T09:48:37.800Z,65.42
2022-09-12T09:51:07.207Z,63.88
2022-09-12T09:53:51.717Z,62.09
2022-09-12T09:56:42.631Z,62.08
2022-09-12T09:59:26.080Z,63.62
2022-09-12T10:02:24.361Z,59.77
2022-09-12T10:04:57.672Z,60.11
2022-09-12T10:07:26.188Z,61.96
2022-09-12T10:10:16.112Z,61.98
2022-09-12T10:12:43.844Z,64.33
2022-09-12T10:15:26.234Z,65.65
2022-09-12T10:17:54.854Z,68.66
2022-09-12T10:20:35.289Z,69.54
2022-09-12T10:23:29.528Z,68.97
2022-09-12T10:26:01.494Z,63.74
2022-09-12T10:28:37.489Z,63.06
2022-09-12T10:31:04.787Z,59.92
2022-09-12T10:33:51.613Z,57.17
2022-09-12T10:36:19.614Z,57.31
2022-09-12T10:39:05.469Z,55.76
2022-09-12T10:41:37.969Z,57.35
2022-09-12T10:44:14.784Z,55.46
2022-09-12T10:46:41.347Z,57.49
2022-09-12T10:49:13.889Z,59.73
2022-09-12T10:51:40.846Z,59.46
2022-09-12T10:54:13.141Z,58.22
2022-09-12T10:57:01.876Z,56.33
2022-09-12T10:59:51.273Z,55.59
2022-09-12T11:02:46.269Z,57.08
2022-09-12T11:06:00.495Z,58.68
2022-09-12T11:09:06.151Z,60.86
2022-09-12T11:12:06.850Z,59.64
2022-09-12T11:14:48.098Z,62.40
2022-09-12T11:17:31.465Z,62.25
2022-09-12T11:20:04.521Z,62.03
2022-09-12T11:22:48.844Z,63.46
2022-09-12T11:25:27.742Z,59.48
2022-09-12T11:28:00.319Z,60.05
2022-09-12T11:30:31.571Z,60.54
2022-09-12T11:33:16.664Z,57.41
2022-09-12T11:35:54.969Z,56.94
2022-09-12T11:38:47.356Z,59.54
2022-09-12T11:41:34.853Z,56.23
2022-09-12T11:44:26.281Z,55.88
2022-09-12T11:46:52.990Z,55.46
2022-09-12T11:49:35.254Z,54.47
2022-09-12T11:52:16.720Z,57.31
2022-09-12T11:54:58.000Z,55.98
2022-09-12T11:57:44.445Z,54.59
2022-09-12T12:00:37.431Z,52.54
2022-09-12T12:03:07.030Z,54.25
2022-09-12T12:05:52.252Z,54.17
2022-09-12T12:08:21.294Z,54.32
2022-09-12T12:10:53.851Z,54.06
2022-09-12T12:13:30.026Z,56.39
2022-09-12T12:16:07.336Z,56.09
2022-09-12T12:18:37.945Z,56.80
2022-09-12T12:21:22.564Z,57.38
2022-09-12T12:24:07.447Z,55.70
2022-09-12T12:26:40.038Z,56.06
2022-09-12T12:29:19.535Z,55.63
2022-09-12T12:32:04.264Z,55.76
2022-09-12T12:34:39.106Z,56.93
2022-09-12T12:37:21.137Z,56.14
2022-09-12T12:39:51.325Z,54.91
2022-09-12T12:42:36.233Z,56.04
2022-09-12T12:45:22.746Z,57.44
2022-09-12T12:47:53.884Z,55.72
2022-09-12T12:50:20.453Z,55.09
2022-09-12T12:53:06.754Z,54.71
2022-09-12T12:55:50.354Z,54.63
2022-09-12T12:58:37.541Z,55.01
2022-09-12T13:01:10.350Z,57.45
2022-09-12T13:03:40.967Z,57.20
2022-09-12T13:06:20.725Z,57.99
2022-09-12T13:09:00.621Z,60.20
2022-09-12T13:11:32.056Z,58.29
2022-09-12T13:14:01.708Z,57.05
2022-09-12T13:16:38.723Z,55.98
2022-09-12T13:19:18.415Z,56.86
2022-09-12T13:22:01.596Z,56.76
2022-09-12T13:24:28.346Z,55.46
2022-09-12T13:26:55.425Z,55.37
2022-09-12T13:29:27.454Z,57.20
2022-09-12T13:32:03.622Z,57.24
2022-09-12T13:34:31.966Z,56.40
2022-09-12T13:37:39.781Z,57.76
2022-09-12T13:40:26.669Z,57.13
2022-09-12T13:43:22.726Z,56.21
2022-09-12T13:45:50.737Z,56.81
2022-09-12T13:48:22.083Z,57.53
2022-09-12T13:51:00.316Z,59.09
2022-09-12T13:53:37.182Z,55.45
2022-09-12T13:56:03.902Z,57.94
2022-09-12T13:58:33.690Z,57.00
2022-09-12T14:01:21.346Z,57.91
2022-09-12T14:04:14.766Z,57.71
2022-09-12T14:06:45.220Z,57.60
2022-09-12T14:09:15.177Z,56.68
2022-09-12T14:11:41.918Z,55.91
2022-09-12T14:14:21.993Z,58.20
2022-09-12T14:16:50.280Z,59.62
2022-09-12T14:19:19.409Z,59.26
2022-09-12T14:21:46.508Z,59.62
2022-09-12T14:24:14.837Z,59.59
2022-09-12T14:26:43.193Z,59.22
2022-09-12T14:29:12.737Z,58.67
2022-09-12T14:31:39.725Z,60.57
2022-09-12T14:34:19.501Z,61.13
2022-09-12T14:36:51.072Z,62.00
2022-09-12T14:39:33.530Z,62.49
2022-09-12T14:42:16.645Z,61.02
2022-09-12T14:45:14.133Z,62.41
2022-09-12T14:47:43.259Z,62.61
2022-09-12T14:50:19.025Z,62.51
2022-09-12T14:52:45.747Z,61.88
2022-09-12T14:55:16.134Z,62.72
2022-09-12T14:57:44.669Z,63.93
2022-09-12T15:00:14.770Z,62.78
2022-09-12T15:02:43.006Z,62.37
2022-09-12T15:05:12.202Z,62.16
2022-09-12T15:07:51.080Z,62.62
2022-09-12T15:10:37.793Z,63.83
2022-09-12T15:13:14.350Z,63.50
2022-09-12T15:15:51.908Z,62.98
2022-09-12T15:18:20.191Z,62.97
2022-09-12T15:20:49.537Z,66.84
2022-09-12T15:23:20.760Z,68.65
2022-09-12T15:25:47.872Z,65.87
2022-09-12T15:28:20.590Z,66.09
2022-09-12T15:30:52.074Z,65.85
2022-09-12T15:33:21.050Z,65.63
2022-09-12T15:35:47.674Z,67.05
2022-09-12T15:38:14.620Z,68.73
2022-09-12T15:40:41.284Z,70.56
2022-09-12T15:43:09.628Z,70.98
2022-09-12T15:45:36.270Z,67.16
2022-09-12T15:48:03.518Z,66.79
2022-09-12T15:50:31.029Z,66.29
2022-09-12T15:52:58.549Z,67.61
2022-09-12T15:55:30.188Z,65.77
2022-09-12T15:57:56.785Z,67.08
2022-09-12T16:00:24.754Z,68.24
2022-09-12T16:02:53.693Z,68.69
2022-09-12T16:05:25.856Z,69.18
2022-09-12T16:07:54.098Z,69.73
2022-09-12T16:10:23.453Z,71.85
2022-09-12T16:12:51.444Z,73.78
2022-09-12T16:15:23.827Z,77.32
2022-09-12T16:17:51.047Z,81.56
2022-09-12T16:20:19.305Z,80.91
2022-09-12T16:22:46.305Z,79.86
2022-09-12T16:25:12.942Z,81.80
2022-09-12T16:27:39.919Z,82.00
2022-09-12T16:30:08.205Z,84.86
2022-09-12T16:32:34.829Z,83.28
2022-09-12T16:35:01.990Z,83.77
2022-09-12T16:37:29.157Z,83.21
2022-09-12T16:39:55.899Z,84.86
2022-09-12T16:42:23.061Z,85.88
2022-09-12T16:44:49.808Z,86.27
2022-09-12T16:47:16.663Z,88.34
2022-09-12T16:49:43.243Z,86.90
2022-09-12T16:52:10.311Z,88.56
2022-09-12T16:54:37.055Z,89.30
2022-09-12T16:57:05.308Z,89.94
2022-09-12T16:59:32.149Z,90.11
2022-09-12T17:01:58.883Z,91.68
2022-09-12T17:04:25.741Z,91.49
2022-09-12T17:06:52.371Z,92.29
2022-09-12T17:09:19.161Z,93.77
2022-09-12T17:11:50.379Z,93.28
2022-09-12T17:14:17.202Z,93.11
2022-09-12T17:16:50.746Z,93.45
2022-09-12T17:19:28.169Z,94.81
2022-09-12T17:21:54.952Z,94.93
2022-09-12T17:24:23.166Z,96.66
2022-09-12T17:26:50.926Z,98.25
2022-09-12T17:29:18.082Z,98.54
2022-09-12T17:31:45.466Z,100.00
2022-09-12T17:34:14.647Z,100.00
2022-09-12T17:36:44.322Z,100.00
2022-09-12T17:39:12.670Z,100.00
2022-09-12T17:41:41.300Z,100.00
2022-09-12T17:44:10.857Z,100.00
2022-09-12T17:46:39.144Z,100.00
2022-09-12T17:49:08.896Z,100.00
2022-09-12T17:51:35.869Z,100.00
2022-09-12T17:54:12.682Z,100.00
2022-09-12T17:56:40.358Z,100.00
2022-09-12T17:59:08.512Z,100.00
2022-09-12T18:01:53.952Z,100.00
2022-09-12T18:04:20.976Z,100.00
2022-09-12T18:06:48.925Z,100.00
2022-09-12T18:09:21.377Z,100.00
2022-09-12T18:11:49.385Z,100.00
2022-09-12T18:14:17.218Z,100.00
2022-09-12T18:16:44.645Z,100.00
2022-09-12T18:19:11.334Z,100.00
2022-09-12T18:21:38.093Z,100.00
2022-09-12T18:24:05.821Z,100.00
2022-09-12T18:26:32.744Z,100.00
2022-09-12T18:29:00.569Z,100.00
2022-09-12T18:31:29.953Z,100.00
2022-09-12T18:33:59.729Z,100.00
2022-09-12T18:36:27.011Z,100.00
2022-09-12T18:38:53.721Z,100.00
2022-09-12T18:41:22.605Z,100.00
2022-09-12T18:43:53.342Z,100.00
2022-09-12T18:46:20.122Z,100.00
2022-09-12T18:48:47.110Z,100.00
2022-09-12T18:51:16.175Z,100.00
2022-09-12T18:53:48.068Z,100.00
2022-09-12T18:56:14.845Z,100.00
2022-09-12T18:58:44.327Z,100.00
2022-09-12T19:01:15.599Z,100.00
2022-09-12T19:03:42.744Z,100.00
2022-09-12T19:06:18.047Z,100.00
2022-09-12T19:08:45.257Z,100.00
2022-09-12T19:11:12.549Z,100.00
2022-09-12T19:13:42.931Z,100.00
2022-09-12T19:16:12.763Z,100.00
2022-09-12T19:18:40.364Z,100.00
2022-09-12T19:21:12.345Z,100.00
2022-09-12T19:23:39.109Z,100.00
2022-09-12T19:26:08.971Z,100.00
2022-09-12T19:28:36.446Z,100.00
2022-09-12T19:31:07.947Z,100.00
2022-09-12T19:33:35.262Z,100.00
2022-09-12T19:36:04.492Z,100.00
2022-09-12T19:38:31.440Z,100.00
2022-09-12T19:41:03.461Z,100.00
2022-09-12T19:43:31.726Z,100.00
2022-09-12T19:45:59.612Z,100.00
2022-09-12T19:48:26.867Z,100.00
2022-09-12T19:50:54.032Z,100.00
2022-09-12T19:53:20.816Z,100.00
2022-09-12T19:55:47.972Z,100.00
2022-09-12T19:58:14.557Z,100.00
2022-09-12T20:00:41.270Z,100.00
2022-09-12T20:03:08.026Z,100.00
2022-09-12T20:05:36.714Z,100.00
2022-09-12T20:08:05.342Z,100.00
2022-09-12T20:10:32.072Z,100.00
2022-09-12T20:12:58.663Z,100.00
2022-09-12T20:15:25.395Z,100.00
2022-09-12T20:17:55.755Z,100.00
2022-09-12T20:20:25.188Z,100.00
2022-09-12T20:22:53.407Z,100.00
2022-09-12T20:25:20.406Z,100.00
2022-09-12T20:27:48.219Z,100.00
2022-09-12T20:30:15.540Z,100.00
2022-09-12T20:32:42.914Z,100.00
2022-09-12T20:35:10.213Z,100.00
2022-09-12T20:37:37.408Z,100.00
2022-09-12T20:40:04.872Z,100.00
2022-09-12T20:42:31.564Z,100.00
2022-09-12T20:44:58.188Z,100.00
2022-09-12T20:47:24.977Z,100.00
2022-09-12T20:49:51.569Z,100.00
2022-09-12T20:52:18.478Z,100.00
2022-09-12T20:54:45.139Z,100.00
2022-09-12T20:57:11.782Z,100.00
2022-09-12T20:59:42.571Z,100.00
2022-09-12T21:02:16.659Z,100.00
2022-09-12T21:04:43.440Z,100.00
2022-09-12T21:07:10.151Z,100.00
2022-09-12T21:09:36.877Z,100.00
2022-09-12T21:12:03.705Z,100.00
2022-09-12T21:14:30.341Z,100.00
2022-09-12T21:16:56.990Z,100.00
2022-09-12T21:19:23.691Z,100.00
2022-09-12T21:21:50.288Z,100.00
2022-09-12T21:24:16.960Z,100.00
2022-09-12T21:26:43.566Z,100.00
2022-09-12T21:29:10.172Z,100.00
2022-09-12T21:31:37.181Z,100.00
2022-09-12T21:34:04.087Z,100.00
2022-09-12T21:36:30.684Z,100.00
2022-09-12T21:38:59.317Z,100.00
2022-09-12T21:41:26.094Z,100.00
2022-09-12T21:43:53.210Z,100.00
2022-09-12T21:46:20.136Z,100.00
2022-09-12T21:48:46.919Z,100.00
2022-09-12T21:51:13.488Z,100.00
2022-09-12T21:53:41.113Z,100.00
2022-09-12T21:56:08.577Z,100.00
2022-09-12T21:58:36.920Z,100.00
2022-09-12T22:01:05.860Z,100.00
2022-09-12T22:03:32.578Z,100.00
2022-09-12T22:06:04.326Z,100.00
2022-09-12T22:08:32.711Z,100.00
2022-09-12T22:11:02.156Z,100.00
2022-09-12T22:13:33.847Z,100.00
2022-09-12T22:16:03.109Z,100.00
2022-09-12T22:18:32.560Z,100.00
2022-09-12T22:21:15.246Z,100.00
2022-09-12T22:24:00.908Z,100.00
2022-09-12T22:26:28.265Z,100.00
2022-09-12T22:28:55.640Z,100.00
2022-09-12T22:31:22.697Z,100.00
2022-09-12T22:33:51.497Z,100.00
2022-09-12T22:36:18.324Z,100.00
2022-09-12T22:38:44.912Z,100.00
2022-09-12T22:41:12.395Z,100.00
2022-09-12T22:43:39.095Z,100.00
2022-09-12T22:46:07.694Z,100.00
2022-09-12T22:48:34.615Z,100.00
2022-09-12T22:51:01.270Z,100.00
2022-09-12T22:53:28.676Z,100.00
2022-09-12T22:55:55.369Z,100.00
2022-09-12T22:58:22.015Z,100.00
2022-09-12T23:00:50.406Z,100.00
2022-09-12T23:03:17.978Z,100.00
2022-09-12T23:05:48.426Z,100.00
2022-09-12T23:08:16.414Z,100.00
2022-09-12T23:10:44.142Z,100.00
2022-09-12T23:13:11.499Z,100.00
2022-09-12T23:15:38.413Z,100.00
2022-09-12T23:18:05.369Z,100.00
2022-09-12T23:20:32.108Z,100.00
2022-09-12T23:22:58.702Z,100.00
2022-09-12T23:25:26.278Z,100.00
2022-09-12T23:27:53.592Z,100.00
2022-09-12T23:30:21.646Z,100.00
2022-09-12T23:32:49.296Z,100.00
2022-09-12T23:35:19.725Z,100.00
2022-09-12T23:37:47.031Z,100.00
2022-09-12T23:40:13.870Z,100.00
2022-09-12T23:42:40.590Z,100.00
2022-09-12T23:45:07.708Z,100.00
2022-09-12T23:47:34.402Z,100.00
2022-09-12T23:50:00.996Z,100.00
2022-09-12T23:52:27.683Z,100.00
2022-09-12T23:54:54.240Z,100.00
2022-09-12T23:57:20.879Z,100.00
2022-09-12T23:59:47.564Z,100.00
